Westover, Maryland
Current Conditions -  °F | °C
As of 7:54 AM on Wednesday 26 Nov 2014 (Local Time) from KSBY Reporting Station
Heavy Rain Heavy Rain  
Wind Chill: 40°   Ceiling: 700
Heat Index: 46°   Visibility: 1.5mi
Dew Point: 43°   Wind: 14mph
Humidity: 89%   Direction: 20°NNE
Pressure: 30.01"   Gusts: NA
Location:  38.12°N, 75.71°W
Report Text: KSBY 261254Z 02012KT 1 1/2SM +RA BR OVC007 08/06 A3001 RMK AO2 SLP162 P0007 T00780061
Loading
Personal Weather Stations






























Interactive Weather Map New forecast layout! Learn more

10-Day Weather Forecast

Advertisements
Track Severe Weather on mobile